sensor_id;sensor_type;location;lat;lon;timestamp;temperature;humidity
24035;DHT22;12242;50.952;4.678;2022-07-06T00:02:10;16.80;98.00
24035;DHT22;12242;50.952;4.678;2022-07-06T00:04:38;16.80;98.20
24035;DHT22;12242;50.952;4.678;2022-07-06T00:07:05;16.80;98.00
24035;DHT22;12242;50.952;4.678;2022-07-06T00:09:33;16.90;98.40
24035;DHT22;12242;50.952;4.678;2022-07-06T00:12:01;16.90;98.30
24035;DHT22;12242;50.952;4.678;2022-07-06T00:14:28;16.90;98.40
24035;DHT22;12242;50.952;4.678;2022-07-06T00:16:56;16.90;98.40
24035;DHT22;12242;50.952;4.678;2022-07-06T00:19:23;16.90;98.70
24035;DHT22;12242;50.952;4.678;2022-07-06T00:21:51;16.90;98.90
24035;DHT22;12242;50.952;4.678;2022-07-06T00:24:18;16.80;98.80
24035;DHT22;12242;50.952;4.678;2022-07-06T00:26:45;16.90;98.70
24035;DHT22;12242;50.952;4.678;2022-07-06T00:29:13;16.90;98.60
24035;DHT22;12242;50.952;4.678;2022-07-06T00:31:43;16.90;98.40
24035;DHT22;12242;50.952;4.678;2022-07-06T00:34:11;16.80;98.40
24035;DHT22;12242;50.952;4.678;2022-07-06T00:36:39;16.80;98.40
24035;DHT22;12242;50.952;4.678;2022-07-06T00:39:09;16.80;98.30
24035;DHT22;12242;50.952;4.678;2022-07-06T00:41:36;16.70;98.50
24035;DHT22;12242;50.952;4.678;2022-07-06T00:44:07;16.60;98.60
24035;DHT22;12242;50.952;4.678;2022-07-06T00:46:36;16.60;98.50
24035;DHT22;12242;50.952;4.678;2022-07-06T00:49:04;16.60;98.60
24035;DHT22;12242;50.952;4.678;2022-07-06T00:51:34;16.60;98.50
24035;DHT22;12242;50.952;4.678;2022-07-06T00:54:04;16.50;98.70
24035;DHT22;12242;50.952;4.678;2022-07-06T00:56:34;16.30;99.20
24035;DHT22;12242;50.952;4.678;2022-07-06T00:59:02;16.30;99.30
24035;DHT22;12242;50.952;4.678;2022-07-06T01:01:32;16.30;99.30
24035;DHT22;12242;50.952;4.678;2022-07-06T01:04:02;16.20;99.50
24035;DHT22;12242;50.952;4.678;2022-07-06T01:06:32;16.20;99.50
24035;DHT22;12242;50.952;4.678;2022-07-06T01:09:00;16.20;99.60
24035;DHT22;12242;50.952;4.678;2022-07-06T01:11:30;16.20;99.50
24035;DHT22;12242;50.952;4.678;2022-07-06T01:14:00;16.30;99.50
24035;DHT22;12242;50.952;4.678;2022-07-06T01:16:30;16.30;99.60
24035;DHT22;12242;50.952;4.678;2022-07-06T01:18:57;16.30;99.70
24035;DHT22;12242;50.952;4.678;2022-07-06T01:21:26;16.20;99.60
24035;DHT22;12242;50.952;4.678;2022-07-06T01:23:56;16.20;99.90
24035;DHT22;12242;50.952;4.678;2022-07-06T01:26:26;16.20;99.90
24035;DHT22;12242;50.952;4.678;2022-07-06T01:28:53;16.10;99.90
24035;DHT22;12242;50.952;4.678;2022-07-06T01:31:25;15.90;99.90
24035;DHT22;12242;50.952;4.678;2022-07-06T01:33:55;15.90;99.90
24035;DHT22;12242;50.952;4.678;2022-07-06T01:36:23;15.90;99.90
24035;DHT22;12242;50.952;4.678;2022-07-06T01:38:58;15.90;99.90
24035;DHT22;12242;50.952;4.678;2022-07-06T01:41:26;15.90;99.90
24035;DHT22;12242;50.952;4.678;2022-07-06T01:43:54;15.90;99.90
24035;DHT22;12242;50.952;4.678;2022-07-06T01:46:25;16.00;99.90
24035;DHT22;12242;50.952;4.678;2022-07-06T01:48:54;16.00;99.90
24035;DHT22;12242;50.952;4.678;2022-07-06T01:51:23;16.00;99.90
24035;DHT22;12242;50.952;4.678;2022-07-06T01:53:51;16.00;99.90
24035;DHT22;12242;50.952;4.678;2022-07-06T01:56:21;16.00;99.90
24035;DHT22;12242;50.952;4.678;2022-07-06T01:58:50;15.90;99.90
24035;DHT22;12242;50.952;4.678;2022-07-06T02:01:20;15.90;99.90
24035;DHT22;12242;50.952;4.678;2022-07-06T02:03:48;16.00;99.90
24035;DHT22;12242;50.952;4.678;2022-07-06T02:06:16;16.00;99.90
24035;DHT22;12242;50.952;4.678;2022-07-06T02:08:46;16.00;99.90
24035;DHT22;12242;50.952;4.678;2022-07-06T02:11:14;16.00;99.90
24035;DHT22;12242;50.952;4.678;2022-07-06T02:13:44;16.00;99.90
24035;DHT22;12242;50.952;4.678;2022-07-06T02:16:12;16.00;99.90
24035;DHT22;12242;50.952;4.678;2022-07-06T02:18:42;16.00;99.90
24035;DHT22;12242;50.952;4.678;2022-07-06T02:21:10;15.90;99.90
24035;DHT22;12242;50.952;4.678;2022-07-06T02:23:39;15.90;99.90
24035;DHT22;12242;50.952;4.678;2022-07-06T02:26:09;15.90;99.90
24035;DHT22;12242;50.952;4.678;2022-07-06T02:28:38;15.90;99.90
24035;DHT22;12242;50.952;4.678;2022-07-06T02:31:05;15.90;99.90
24035;DHT22;12242;50.952;4.678;2022-07-06T02:33:35;15.80;99.90
24035;DHT22;12242;50.952;4.678;2022-07-06T02:36:02;15.80;99.90
24035;DHT22;12242;50.952;4.678;2022-07-06T02:38:30;15.80;99.90
24035;DHT22;12242;50.952;4.678;2022-07-06T02:40:57;15.70;99.90
24035;DHT22;12242;50.952;4.678;2022-07-06T02:43:25;15.60;99.90
24035;DHT22;12242;50.952;4.678;2022-07-06T02:45:53;15.60;99.90
24035;DHT22;12242;50.952;4.678;2022-07-06T02:48:20;15.60;99.90
24035;DHT22;12242;50.952;4.678;2022-07-06T02:50:51;15.60;99.90
24035;DHT22;12242;50.952;4.678;2022-07-06T02:53:19;15.70;99.90
24035;DHT22;12242;50.952;4.678;2022-07-06T02:55:46;15.70;99.90
24035;DHT22;12242;50.952;4.678;2022-07-06T02:58:14;15.70;99.90
24035;DHT22;12242;50.952;4.678;2022-07-06T03:00:41;15.70;99.90
24035;DHT22;12242;50.952;4.678;2022-07-06T03:03:09;15.60;99.90
24035;DHT22;12242;50.952;4.678;2022-07-06T03:05:37;15.60;99.90
24035;DHT22;12242;50.952;4.678;2022-07-06T03:08:05;15.60;99.90
24035;DHT22;12242;50.952;4.678;2022-07-06T03:10:32;15.60;99.90
24035;DHT22;12242;50.952;4.678;2022-07-06T03:12:59;15.50;99.90
24035;DHT22;12242;50.952;4.678;2022-07-06T03:15:29;15.50;99.90
24035;DHT22;12242;50.952;4.678;2022-07-06T03:17:59;15.40;99.90
24035;DHT22;12242;50.952;4.678;2022-07-06T03:20:26;15.40;99.90
24035;DHT22;12242;50.952;4.678;2022-07-06T03:22:54;15.40;99.90
24035;DHT22;12242;50.952;4.678;2022-07-06T03:25:24;15.40;99.90
24035;DHT22;12242;50.952;4.678;2022-07-06T03:27:54;15.40;99.90
24035;DHT22;12242;50.952;4.678;2022-07-06T03:30:22;15.40;99.90
24035;DHT22;12242;50.952;4.678;2022-07-06T03:32:49;15.40;99.90
24035;DHT22;12242;50.952;4.678;2022-07-06T03:35:16;15.40;99.90
24035;DHT22;12242;50.952;4.678;2022-07-06T03:37:45;15.40;99.90
24035;DHT22;12242;50.952;4.678;2022-07-06T03:40:16;15.30;99.90
24035;DHT22;12242;50.952;4.678;2022-07-06T03:42:43;15.30;99.90
24035;DHT22;12242;50.952;4.678;2022-07-06T03:45:10;15.30;99.90
24035;DHT22;12242;50.952;4.678;2022-07-06T03:47:38;15.30;99.90
24035;DHT22;12242;50.952;4.678;2022-07-06T03:50:06;15.30;99.90
24035;DHT22;12242;50.952;4.678;2022-07-06T03:52:36;15.30;99.90
24035;DHT22;12242;50.952;4.678;2022-07-06T03:55:09;15.30;99.90
24035;DHT22;12242;50.952;4.678;2022-07-06T03:57:38;15.30;99.90
24035;DHT22;12242;50.952;4.678;2022-07-06T04:00:08;15.20;99.90
24035;DHT22;12242;50.952;4.678;2022-07-06T04:02:36;15.20;99.90
24035;DHT22;12242;50.952;4.678;2022-07-06T04:05:04;15.10;99.90
24035;DHT22;12242;50.952;4.678;2022-07-06T04:07:32;15.10;99.90
24035;DHT22;12242;50.952;4.678;2022-07-06T04:09:59;15.10;99.90
24035;DHT22;12242;50.952;4.678;2022-07-06T04:12:28;15.20;99.90
24035;DHT22;12242;50.952;4.678;2022-07-06T04:14:59;15.20;99.90
24035;DHT22;12242;50.952;4.678;2022-07-06T04:17:28;15.20;99.90
24035;DHT22;12242;50.952;4.678;2022-07-06T04:20:15;15.20;99.90
24035;DHT22;12242;50.952;4.678;2022-07-06T04:22:42;15.20;99.90
24035;DHT22;12242;50.952;4.678;2022-07-06T04:25:10;15.20;99.90
24035;DHT22;12242;50.952;4.678;2022-07-06T04:27:37;15.30;99.90
24035;DHT22;12242;50.952;4.678;2022-07-06T04:30:05;15.40;99.90
24035;DHT22;12242;50.952;4.678;2022-07-06T04:32:33;15.50;99.90
24035;DHT22;12242;50.952;4.678;2022-07-06T04:35:03;15.50;99.90
24035;DHT22;12242;50.952;4.678;2022-07-06T04:37:33;15.50;99.90
24035;DHT22;12242;50.952;4.678;2022-07-06T04:40:01;15.60;99.90
24035;DHT22;12242;50.952;4.678;2022-07-06T04:42:31;15.60;99.90
24035;DHT22;12242;50.952;4.678;2022-07-06T04:44:59;15.70;99.90
24035;DHT22;12242;50.952;4.678;2022-07-06T04:47:28;15.80;99.90
24035;DHT22;12242;50.952;4.678;2022-07-06T04:49:56;15.80;99.90
24035;DHT22;12242;50.952;4.678;2022-07-06T04:52:23;15.80;99.90
24035;DHT22;12242;50.952;4.678;2022-07-06T04:54:51;15.90;99.90
24035;DHT22;12242;50.952;4.678;2022-07-06T04:57:21;16.00;99.90
24035;DHT22;12242;50.952;4.678;2022-07-06T04:59:52;16.00;99.90
24035;DHT22;12242;50.952;4.678;2022-07-06T05:02:20;16.10;99.90
24035;DHT22;12242;50.952;4.678;2022-07-06T05:04:50;16.20;99.90
24035;DHT22;12242;50.952;4.678;2022-07-06T05:07:20;16.20;99.90
24035;DHT22;12242;50.952;4.678;2022-07-06T05:09:52;16.30;99.90
24035;DHT22;12242;50.952;4.678;2022-07-06T05:12:20;16.40;99.90
24035;DHT22;12242;50.952;4.678;2022-07-06T05:14:47;16.50;99.90
24035;DHT22;12242;50.952;4.678;2022-07-06T05:17:14;16.60;99.90
24035;DHT22;12242;50.952;4.678;2022-07-06T05:19:41;16.70;99.90
24035;DHT22;12242;50.952;4.678;2022-07-06T05:22:09;16.90;99.90
24035;DHT22;12242;50.952;4.678;2022-07-06T05:24:36;17.00;99.90
24035;DHT22;12242;50.952;4.678;2022-07-06T05:27:04;17.00;99.90
24035;DHT22;12242;50.952;4.678;2022-07-06T05:29:31;17.10;99.90
24035;DHT22;12242;50.952;4.678;2022-07-06T05:32:09;17.20;99.90
24035;DHT22;12242;50.952;4.678;2022-07-06T05:34:38;17.30;99.90
24035;DHT22;12242;50.952;4.678;2022-07-06T05:37:09;17.40;99.90
24035;DHT22;12242;50.952;4.678;2022-07-06T05:39:36;17.40;99.90
24035;DHT22;12242;50.952;4.678;2022-07-06T05:42:10;17.50;99.90
24035;DHT22;12242;50.952;4.678;2022-07-06T05:44:40;17.60;99.90
24035;DHT22;12242;50.952;4.678;2022-07-06T05:47:08;17.60;99.90
24035;DHT22;12242;50.952;4.678;2022-07-06T05:49:54;17.80;99.90
24035;DHT22;12242;50.952;4.678;2022-07-06T05:52:44;17.80;99.90
24035;DHT22;12242;50.952;4.678;2022-07-06T05:55:15;17.90;99.90
24035;DHT22;12242;50.952;4.678;2022-07-06T05:57:45;17.90;99.90
24035;DHT22;12242;50.952;4.678;2022-07-06T06:00:13;18.00;99.90
24035;DHT22;12242;50.952;4.678;2022-07-06T06:02:43;18.00;99.90
24035;DHT22;12242;50.952;4.678;2022-07-06T06:05:13;18.10;99.90
24035;DHT22;12242;50.952;4.678;2022-07-06T06:07:47;18.20;99.90
24035;DHT22;12242;50.952;4.678;2022-07-06T06:10:23;18.30;99.90
24035;DHT22;12242;50.952;4.678;2022-07-06T06:12:51;18.40;99.90
24035;DHT22;12242;50.952;4.678;2022-07-06T06:15:19;18.60;99.90
24035;DHT22;12242;50.952;4.678;2022-07-06T06:17:51;18.80;99.90
24035;DHT22;12242;50.952;4.678;2022-07-06T06:20:19;19.00;99.90
24035;DHT22;12242;50.952;4.678;2022-07-06T06:22:55;19.00;99.90
24035;DHT22;12242;50.952;4.678;2022-07-06T06:25:31;19.20;99.90
24035;DHT22;12242;50.952;4.678;2022-07-06T06:28:02;19.40;99.90
24035;DHT22;12242;50.952;4.678;2022-07-06T06:30:32;19.60;99.90
24035;DHT22;12242;50.952;4.678;2022-07-06T06:33:11;19.70;99.90
24035;DHT22;12242;50.952;4.678;2022-07-06T06:35:46;19.80;99.90
24035;DHT22;12242;50.952;4.678;2022-07-06T06:38:15;20.00;99.90
24035;DHT22;12242;50.952;4.678;2022-07-06T06:40:48;20.10;99.90
24035;DHT22;12242;50.952;4.678;2022-07-06T06:43:15;20.10;99.90
24035;DHT22;12242;50.952;4.678;2022-07-06T06:45:42;20.30;99.90
24035;DHT22;12242;50.952;4.678;2022-07-06T06:48:11;20.30;99.90
24035;DHT22;12242;50.952;4.678;2022-07-06T06:50:44;20.50;99.90
24035;DHT22;12242;50.952;4.678;2022-07-06T06:53:13;20.50;99.70
24035;DHT22;12242;50.952;4.678;2022-07-06T06:55:41;20.70;99.90
24035;DHT22;12242;50.952;4.678;2022-07-06T06:58:08;20.70;97.00
24035;DHT22;12242;50.952;4.678;2022-07-06T07:00:36;20.80;97.30
24035;DHT22;12242;50.952;4.678;2022-07-06T07:03:04;20.80;97.80
24035;DHT22;12242;50.952;4.678;2022-07-06T07:05:31;21.00;97.40
24035;DHT22;12242;50.952;4.678;2022-07-06T07:08:01;21.20;96.70
24035;DHT22;12242;50.952;4.678;2022-07-06T07:10:33;21.30;96.10
24035;DHT22;12242;50.952;4.678;2022-07-06T07:13:01;21.30;95.70
24035;DHT22;12242;50.952;4.678;2022-07-06T07:15:31;21.50;96.10
24035;DHT22;12242;50.952;4.678;2022-07-06T07:17:59;21.70;95.90
24035;DHT22;12242;50.952;4.678;2022-07-06T07:20:26;22.00;93.80
24035;DHT22;12242;50.952;4.678;2022-07-06T07:22:57;21.90;92.00
24035;DHT22;12242;50.952;4.678;2022-07-06T07:25:25;22.00;92.20
24035;DHT22;12242;50.952;4.678;2022-07-06T07:27:53;22.00;92.10
24035;DHT22;12242;50.952;4.678;2022-07-06T07:30:23;22.10;91.70
24035;DHT22;12242;50.952;4.678;2022-07-06T07:32:51;22.30;92.30
24035;DHT22;12242;50.952;4.678;2022-07-06T07:35:18;22.50;91.60
24035;DHT22;12242;50.952;4.678;2022-07-06T07:37:48;22.80;90.70
24035;DHT22;12242;50.952;4.678;2022-07-06T07:40:16;23.00;91.90
24035;DHT22;12242;50.952;4.678;2022-07-06T07:42:44;23.10;90.00
24035;DHT22;12242;50.952;4.678;2022-07-06T07:45:13;23.30;90.70
24035;DHT22;12242;50.952;4.678;2022-07-06T07:47:41;23.60;86.30
24035;DHT22;12242;50.952;4.678;2022-07-06T07:50:09;23.50;83.50
24035;DHT22;12242;50.952;4.678;2022-07-06T07:52:36;23.60;85.20
24035;DHT22;12242;50.952;4.678;2022-07-06T07:55:05;23.70;85.50
24035;DHT22;12242;50.952;4.678;2022-07-06T07:57:57;23.90;85.40
24035;DHT22;12242;50.952;4.678;2022-07-06T08:00:24;24.30;86.20
24035;DHT22;12242;50.952;4.678;2022-07-06T08:02:54;24.20;83.90
24035;DHT22;12242;50.952;4.678;2022-07-06T08:05:22;24.40;86.70
24035;DHT22;12242;50.952;4.678;2022-07-06T08:07:51;24.70;81.90
24035;DHT22;12242;50.952;4.678;2022-07-06T08:10:21;24.80;78.60
24035;DHT22;12242;50.952;4.678;2022-07-06T08:12:49;25.10;81.00
24035;DHT22;12242;50.952;4.678;2022-07-06T08:15:19;25.30;78.30
24035;DHT22;12242;50.952;4.678;2022-07-06T08:17:47;25.60;81.20
24035;DHT22;12242;50.952;4.678;2022-07-06T08:20:15;25.70;77.00
24035;DHT22;12242;50.952;4.678;2022-07-06T08:22:43;26.00;76.30
24035;DHT22;12242;50.952;4.678;2022-07-06T08:25:11;26.10;75.70
24035;DHT22;12242;50.952;4.678;2022-07-06T08:27:38;26.00;71.60
24035;DHT22;12242;50.952;4.678;2022-07-06T08:30:06;26.20;75.90
24035;DHT22;12242;50.952;4.678;2022-07-06T08:32:40;26.40;76.70
24035;DHT22;12242;50.952;4.678;2022-07-06T08:35:28;26.20;74.20
24035;DHT22;12242;50.952;4.678;2022-07-06T08:37:56;26.40;72.90
24035;DHT22;12242;50.952;4.678;2022-07-06T08:40:23;26.60;71.60
24035;DHT22;12242;50.952;4.678;2022-07-06T08:42:54;26.80;71.40
24035;DHT22;12242;50.952;4.678;2022-07-06T08:45:27;26.80;74.70
24035;DHT22;12242;50.952;4.678;2022-07-06T08:48:05;26.50;74.50
24035;DHT22;12242;50.952;4.678;2022-07-06T08:50:33;26.80;76.20
24035;DHT22;12242;50.952;4.678;2022-07-06T08:53:04;27.20;73.10
24035;DHT22;12242;50.952;4.678;2022-07-06T08:55:33;27.50;73.40
24035;DHT22;12242;50.952;4.678;2022-07-06T08:58:00;27.60;73.80
24035;DHT22;12242;50.952;4.678;2022-07-06T09:00:29;26.40;73.40
24035;DHT22;12242;50.952;4.678;2022-07-06T09:02:57;26.50;73.00
24035;DHT22;12242;50.952;4.678;2022-07-06T09:05:26;26.60;74.80
24035;DHT22;12242;50.952;4.678;2022-07-06T09:07:55;26.80;74.20
24035;DHT22;12242;50.952;4.678;2022-07-06T09:10:26;27.10;73.90
24035;DHT22;12242;50.952;4.678;2022-07-06T09:13:02;26.80;69.40
24035;DHT22;12242;50.952;4.678;2022-07-06T09:15:31;26.60;72.70
24035;DHT22;12242;50.952;4.678;2022-07-06T09:17:59;26.60;74.00
24035;DHT22;12242;50.952;4.678;2022-07-06T09:20:30;26.20;71.40
24035;DHT22;12242;50.952;4.678;2022-07-06T09:22:59;25.90;73.10
24035;DHT22;12242;50.952;4.678;2022-07-06T09:25:28;25.50;75.90
24035;DHT22;12242;50.952;4.678;2022-07-06T09:27:59;25.20;75.40
24035;DHT22;12242;50.952;4.678;2022-07-06T09:30:28;25.00;75.80
24035;DHT22;12242;50.952;4.678;2022-07-06T09:32:57;25.10;77.30
24035;DHT22;12242;50.952;4.678;2022-07-06T09:35:29;25.00;76.20
24035;DHT22;12242;50.952;4.678;2022-07-06T09:40:33;24.80;73.80
24035;DHT22;12242;50.952;4.678;2022-07-06T09:43:11;24.70;77.70
24035;DHT22;12242;50.952;4.678;2022-07-06T09:45:43;24.70;78.30
24035;DHT22;12242;50.952;4.678;2022-07-06T09:48:16;24.80;78.50
24035;DHT22;12242;50.952;4.678;2022-07-06T09:50:56;24.70;77.80
24035;DHT22;12242;50.952;4.678;2022-07-06T09:53:25;24.70;78.00
24035;DHT22;12242;50.952;4.678;2022-07-06T09:55:55;24.60;76.10
24035;DHT22;12242;50.952;4.678;2022-07-06T09:58:23;24.60;75.00
24035;DHT22;12242;50.952;4.678;2022-07-06T10:01:27;24.60;77.20
24035;DHT22;12242;50.952;4.678;2022-07-06T10:03:58;24.60;76.20
24035;DHT22;12242;50.952;4.678;2022-07-06T10:06:25;24.60;75.20
24035;DHT22;12242;50.952;4.678;2022-07-06T10:08:54;24.50;75.70
24035;DHT22;12242;50.952;4.678;2022-07-06T10:11:24;24.60;78.20
24035;DHT22;12242;50.952;4.678;2022-07-06T10:13:56;24.70;74.90
24035;DHT22;12242;50.952;4.678;2022-07-06T10:16:26;25.00;76.80
24035;DHT22;12242;50.952;4.678;2022-07-06T10:18:58;25.50;79.00
24035;DHT22;12242;50.952;4.678;2022-07-06T10:21:25;26.10;77.80
24035;DHT22;12242;50.952;4.678;2022-07-06T10:23:55;26.30;72.90
24035;DHT22;12242;50.952;4.678;2022-07-06T10:26:27;26.50;75.00
24035;DHT22;12242;50.952;4.678;2022-07-06T10:28:55;26.30;73.20
24035;DHT22;12242;50.952;4.678;2022-07-06T10:31:23;26.10;74.10
24035;DHT22;12242;50.952;4.678;2022-07-06T10:34:00;26.40;77.00
24035;DHT22;12242;50.952;4.678;2022-07-06T10:36:29;26.80;74.30
24035;DHT22;12242;50.952;4.678;2022-07-06T10:38:58;26.00;72.30
24035;DHT22;12242;50.952;4.678;2022-07-06T10:41:45;25.30;73.80
24035;DHT22;12242;50.952;4.678;2022-07-06T10:44:17;25.30;75.00
24035;DHT22;12242;50.952;4.678;2022-07-06T10:46:53;25.30;75.80
24035;DHT22;12242;50.952;4.678;2022-07-06T10:49:23;24.80;74.50
24035;DHT22;12242;50.952;4.678;2022-07-06T10:52:11;25.00;76.80
24035;DHT22;12242;50.952;4.678;2022-07-06T10:54:39;25.30;75.50
24035;DHT22;12242;50.952;4.678;2022-07-06T10:57:09;25.10;74.70
24035;DHT22;12242;50.952;4.678;2022-07-06T10:59:40;24.30;76.80
24035;DHT22;12242;50.952;4.678;2022-07-06T11:02:15;24.10;77.10
24035;DHT22;12242;50.952;4.678;2022-07-06T11:04:48;24.60;78.00
24035;DHT22;12242;50.952;4.678;2022-07-06T11:07:18;24.70;76.80
24035;DHT22;12242;50.952;4.678;2022-07-06T11:09:59;24.90;72.40
24035;DHT22;12242;50.952;4.678;2022-07-06T11:12:27;25.10;75.30
24035;DHT22;12242;50.952;4.678;2022-07-06T11:14:54;25.00;76.30
24035;DHT22;12242;50.952;4.678;2022-07-06T11:17:22;24.70;77.90
24035;DHT22;12242;50.952;4.678;2022-07-06T11:22:24;25.30;75.60
24035;DHT22;12242;50.952;4.678;2022-07-06T11:24:54;25.50;74.70
24035;DHT22;12242;50.952;4.678;2022-07-06T11:27:24;25.70;73.40
24035;DHT22;12242;50.952;4.678;2022-07-06T11:29:53;26.10;75.40
24035;DHT22;12242;50.952;4.678;2022-07-06T11:32:26;26.50;73.70
24035;DHT22;12242;50.952;4.678;2022-07-06T11:34:54;26.80;74.40
24035;DHT22;12242;50.952;4.678;2022-07-06T11:37:22;27.50;73.10
24035;DHT22;12242;50.952;4.678;2022-07-06T11:39:50;28.00;72.70
24035;DHT22;12242;50.952;4.678;2022-07-06T11:42:18;28.00;66.70
24035;DHT22;12242;50.952;4.678;2022-07-06T11:44:46;27.70;69.70
24035;DHT22;12242;50.952;4.678;2022-07-06T11:47:13;27.80;71.50
24035;DHT22;12242;50.952;4.678;2022-07-06T11:49:50;27.50;66.70
24035;DHT22;12242;50.952;4.678;2022-07-06T11:52:18;27.50;68.30
24035;DHT22;12242;50.952;4.678;2022-07-06T11:54:46;27.10;73.50
24035;DHT22;12242;50.952;4.678;2022-07-06T11:57:13;27.20;70.70
24035;DHT22;12242;50.952;4.678;2022-07-06T11:59:41;27.10;69.50
24035;DHT22;12242;50.952;4.678;2022-07-06T12:02:11;27.10;70.90
24035;DHT22;12242;50.952;4.678;2022-07-06T12:04:41;26.70;73.20
24035;DHT22;12242;50.952;4.678;2022-07-06T12:07:12;26.40;72.40
24035;DHT22;12242;50.952;4.678;2022-07-06T12:09:42;26.50;71.20
24035;DHT22;12242;50.952;4.678;2022-07-06T12:12:11;26.70;76.40
24035;DHT22;12242;50.952;4.678;2022-07-06T12:14:41;26.70;72.40
24035;DHT22;12242;50.952;4.678;2022-07-06T12:17:15;26.70;72.20
24035;DHT22;12242;50.952;4.678;2022-07-06T12:19:44;26.90;73.20
24035;DHT22;12242;50.952;4.678;2022-07-06T12:22:12;26.90;72.70
24035;DHT22;12242;50.952;4.678;2022-07-06T12:24:43;27.00;72.60
24035;DHT22;12242;50.952;4.678;2022-07-06T12:27:18;26.90;71.20
24035;DHT22;12242;50.952;4.678;2022-07-06T12:29:48;26.60;70.50
24035;DHT22;12242;50.952;4.678;2022-07-06T12:32:20;26.40;71.80
24035;DHT22;12242;50.952;4.678;2022-07-06T12:35:08;26.50;72.10
24035;DHT22;12242;50.952;4.678;2022-07-06T12:37:38;26.60;73.30
24035;DHT22;12242;50.952;4.678;2022-07-06T12:40:17;26.70;71.20
24035;DHT22;12242;50.952;4.678;2022-07-06T12:42:47;26.80;69.20
24035;DHT22;12242;50.952;4.678;2022-07-06T12:45:16;26.70;72.80
24035;DHT22;12242;50.952;4.678;2022-07-06T12:48:01;26.70;71.40
24035;DHT22;12242;50.952;4.678;2022-07-06T12:50:39;26.80;72.20
24035;DHT22;12242;50.952;4.678;2022-07-06T12:53:24;27.00;72.20
24035;DHT22;12242;50.952;4.678;2022-07-06T12:56:14;27.50;73.40
24035;DHT22;12242;50.952;4.678;2022-07-06T12:58:58;27.60;71.00
24035;DHT22;12242;50.952;4.678;2022-07-06T13:01:26;27.50;69.10
24035;DHT22;12242;50.952;4.678;2022-07-06T13:03:55;27.30;68.20
24035;DHT22;12242;50.952;4.678;2022-07-06T13:06:41;27.50;72.90
24035;DHT22;12242;50.952;4.678;2022-07-06T13:09:11;27.80;72.90
24035;DHT22;12242;50.952;4.678;2022-07-06T13:11:42;27.90;66.90
24035;DHT22;12242;50.952;4.678;2022-07-06T13:14:09;27.80;67.80
24035;DHT22;12242;50.952;4.678;2022-07-06T13:16:38;27.60;67.30
24035;DHT22;12242;50.952;4.678;2022-07-06T13:19:06;27.50;70.40
24035;DHT22;12242;50.952;4.678;2022-07-06T13:21:36;27.60;73.20
24035;DHT22;12242;50.952;4.678;2022-07-06T13:24:07;27.40;69.50
24035;DHT22;12242;50.952;4.678;2022-07-06T13:26:34;27.30;70.70
24035;DHT22;12242;50.952;4.678;2022-07-06T13:29:03;27.50;71.30
24035;DHT22;12242;50.952;4.678;2022-07-06T13:31:33;27.30;68.00
24035;DHT22;12242;50.952;4.678;2022-07-06T13:34:01;26.90;67.10
24035;DHT22;12242;50.952;4.678;2022-07-06T13:36:29;26.50;69.80
24035;DHT22;12242;50.952;4.678;2022-07-06T13:38:56;26.40;73.30
24035;DHT22;12242;50.952;4.678;2022-07-06T13:41:24;26.20;72.80
24035;DHT22;12242;50.952;4.678;2022-07-06T13:43:54;26.20;71.70
24035;DHT22;12242;50.952;4.678;2022-07-06T13:46:24;26.10;72.90
24035;DHT22;12242;50.952;4.678;2022-07-06T13:48:51;26.00;72.10
24035;DHT22;12242;50.952;4.678;2022-07-06T13:51:19;26.10;73.30
24035;DHT22;12242;50.952;4.678;2022-07-06T13:53:48;26.20;74.40
24035;DHT22;12242;50.952;4.678;2022-07-06T13:56:19;25.80;77.20
24035;DHT22;12242;50.952;4.678;2022-07-06T13:58:46;25.80;77.60
24035;DHT22;12242;50.952;4.678;2022-07-06T14:01:16;25.80;78.90
24035;DHT22;12242;50.952;4.678;2022-07-06T14:03:52;26.00;74.20
24035;DHT22;12242;50.952;4.678;2022-07-06T14:06:25;26.20;78.50
24035;DHT22;12242;50.952;4.678;2022-07-06T14:08:53;26.00;75.40
24035;DHT22;12242;50.952;4.678;2022-07-06T14:11:20;26.10;76.20
24035;DHT22;12242;50.952;4.678;2022-07-06T14:13:48;26.20;75.10
24035;DHT22;12242;50.952;4.678;2022-07-06T14:16:16;26.00;75.50
24035;DHT22;12242;50.952;4.678;2022-07-06T14:18:46;26.00;76.80
24035;DHT22;12242;50.952;4.678;2022-07-06T14:21:18;26.10;77.60
24035;DHT22;12242;50.952;4.678;2022-07-06T14:23:50;26.00;77.30
24035;DHT22;12242;50.952;4.678;2022-07-06T14:26:17;26.00;75.80
24035;DHT22;12242;50.952;4.678;2022-07-06T14:28:47;26.20;76.40
24035;DHT22;12242;50.952;4.678;2022-07-06T14:31:14;26.00;75.00
24035;DHT22;12242;50.952;4.678;2022-07-06T14:33:49;25.90;77.90
24035;DHT22;12242;50.952;4.678;2022-07-06T14:36:23;25.90;76.40
24035;DHT22;12242;50.952;4.678;2022-07-06T14:38:51;25.70;73.30
24035;DHT22;12242;50.952;4.678;2022-07-06T14:41:18;25.70;76.00
24035;DHT22;12242;50.952;4.678;2022-07-06T14:43:48;25.80;74.50
24035;DHT22;12242;50.952;4.678;2022-07-06T14:46:16;25.70;76.90
24035;DHT22;12242;50.952;4.678;2022-07-06T14:48:47;25.60;75.60
24035;DHT22;12242;50.952;4.678;2022-07-06T14:51:14;25.50;78.40
24035;DHT22;12242;50.952;4.678;2022-07-06T14:53:44;25.40;78.30
24035;DHT22;12242;50.952;4.678;2022-07-06T14:56:11;25.50;79.10
24035;DHT22;12242;50.952;4.678;2022-07-06T14:58:43;25.60;77.30
24035;DHT22;12242;50.952;4.678;2022-07-06T15:01:31;25.60;76.10
24035;DHT22;12242;50.952;4.678;2022-07-06T15:03:58;25.70;75.10
24035;DHT22;12242;50.952;4.678;2022-07-06T15:06:26;25.60;77.50
24035;DHT22;12242;50.952;4.678;2022-07-06T15:09:14;25.60;75.60
24035;DHT22;12242;50.952;4.678;2022-07-06T15:11:42;25.70;75.10
24035;DHT22;12242;50.952;4.678;2022-07-06T15:14:09;25.70;73.60
24035;DHT22;12242;50.952;4.678;2022-07-06T15:16:37;25.70;77.30
24035;DHT22;12242;50.952;4.678;2022-07-06T15:19:07;25.70;77.00
24035;DHT22;12242;50.952;4.678;2022-07-06T15:21:39;25.70;77.80
24035;DHT22;12242;50.952;4.678;2022-07-06T15:24:07;25.60;77.30
24035;DHT22;12242;50.952;4.678;2022-07-06T15:26:35;25.50;76.30
24035;DHT22;12242;50.952;4.678;2022-07-06T15:29:03;25.40;77.10
24035;DHT22;12242;50.952;4.678;2022-07-06T15:31:32;25.40;78.00
24035;DHT22;12242;50.952;4.678;2022-07-06T15:34:00;25.30;77.50
24035;DHT22;12242;50.952;4.678;2022-07-06T15:36:27;25.30;77.10
24035;DHT22;12242;50.952;4.678;2022-07-06T15:38:55;25.30;77.20
24035;DHT22;12242;50.952;4.678;2022-07-06T15:41:25;25.40;77.00
24035;DHT22;12242;50.952;4.678;2022-07-06T15:43:55;25.40;77.80
24035;DHT22;12242;50.952;4.678;2022-07-06T15:46:25;25.30;76.60
24035;DHT22;12242;50.952;4.678;2022-07-06T15:48:52;25.20;77.60
24035;DHT22;12242;50.952;4.678;2022-07-06T15:51:22;25.10;78.10
24035;DHT22;12242;50.952;4.678;2022-07-06T15:53:49;25.20;78.60